sensor_id;sensor_type;location;lat;lon;timestamp;temperature;humidity
56044;DHT22;41912;51.022;3.664;2024-01-16T00:02:00;3.10;99.90
56044;DHT22;41912;51.022;3.664;2024-01-16T00:04:25;3.10;99.90
56044;DHT22;41912;51.022;3.664;2024-01-16T00:06:52;3.10;99.90
56044;DHT22;41912;51.022;3.664;2024-01-16T00:09:18;3.00;99.90
56044;DHT22;41912;51.022;3.664;2024-01-16T00:11:43;3.00;99.90
56044;DHT22;41912;51.022;3.664;2024-01-16T00:14:10;3.00;99.90
56044;DHT22;41912;51.022;3.664;2024-01-16T00:16:46;2.90;99.90
56044;DHT22;41912;51.022;3.664;2024-01-16T00:19:12;3.00;99.90
56044;DHT22;41912;51.022;3.664;2024-01-16T00:21:42;2.90;99.90
56044;DHT22;41912;51.022;3.664;2024-01-16T00:24:08;2.90;99.90
56044;DHT22;41912;51.022;3.664;2024-01-16T00:26:33;2.90;99.90
56044;DHT22;41912;51.022;3.664;2024-01-16T00:28:59;2.80;99.90
56044;DHT22;41912;51.022;3.664;2024-01-16T00:31:25;2.80;99.90
56044;DHT22;41912;51.022;3.664;2024-01-16T00:33:51;2.80;99.90
56044;DHT22;41912;51.022;3.664;2024-01-16T00:36:16;2.70;99.90
56044;DHT22;41912;51.022;3.664;2024-01-16T00:38:42;2.70;99.90
56044;DHT22;41912;51.022;3.664;2024-01-16T00:41:14;2.70;99.90
56044;DHT22;41912;51.022;3.664;2024-01-16T00:43:54;2.70;99.90
56044;DHT22;41912;51.022;3.664;2024-01-16T00:46:20;2.60;99.90
56044;DHT22;41912;51.022;3.664;2024-01-16T00:48:46;2.60;99.90
56044;DHT22;41912;51.022;3.664;2024-01-16T00:51:12;2.60;99.90
56044;DHT22;41912;51.022;3.664;2024-01-16T00:53:41;2.60;99.90
56044;DHT22;41912;51.022;3.664;2024-01-16T00:56:08;2.50;99.90
56044;DHT22;41912;51.022;3.664;2024-01-16T00:58:33;2.50;99.90
56044;DHT22;41912;51.022;3.664;2024-01-16T01:00:59;2.50;99.90
56044;DHT22;41912;51.022;3.664;2024-01-16T01:03:25;2.40;99.90
56044;DHT22;41912;51.022;3.664;2024-01-16T01:05:50;2.30;99.90
56044;DHT22;41912;51.022;3.664;2024-01-16T01:08:16;2.30;99.90
56044;DHT22;41912;51.022;3.664;2024-01-16T01:10:42;2.30;99.90
56044;DHT22;41912;51.022;3.664;2024-01-16T01:13:08;2.30;99.90
56044;DHT22;41912;51.022;3.664;2024-01-16T01:15:33;2.20;99.90
56044;DHT22;41912;51.022;3.664;2024-01-16T01:17:59;2.20;99.90
56044;DHT22;41912;51.022;3.664;2024-01-16T01:20:24;2.40;99.90
56044;DHT22;41912;51.022;3.664;2024-01-16T01:22:51;2.20;99.90
56044;DHT22;41912;51.022;3.664;2024-01-16T01:25:16;2.20;99.90
56044;DHT22;41912;51.022;3.664;2024-01-16T01:27:42;2.20;99.90
56044;DHT22;41912;51.022;3.664;2024-01-16T01:30:08;2.20;99.90
56044;DHT22;41912;51.022;3.664;2024-01-16T01:32:37;2.20;99.90
56044;DHT22;41912;51.022;3.664;2024-01-16T01:35:03;2.20;99.90
56044;DHT22;41912;51.022;3.664;2024-01-16T01:37:29;2.10;99.90
56044;DHT22;41912;51.022;3.664;2024-01-16T01:39:55;2.10;99.90
56044;DHT22;41912;51.022;3.664;2024-01-16T01:42:20;2.20;99.90
56044;DHT22;41912;51.022;3.664;2024-01-16T01:44:46;2.20;99.90
56044;DHT22;41912;51.022;3.664;2024-01-16T01:47:12;2.20;99.90
56044;DHT22;41912;51.022;3.664;2024-01-16T01:49:38;2.20;99.90
56044;DHT22;41912;51.022;3.664;2024-01-16T01:52:05;2.20;99.90
56044;DHT22;41912;51.022;3.664;2024-01-16T01:54:32;2.20;99.90
56044;DHT22;41912;51.022;3.664;2024-01-16T01:57:01;2.10;99.90
56044;DHT22;41912;51.022;3.664;2024-01-16T01:59:27;2.10;99.90
56044;DHT22;41912;51.022;3.664;2024-01-16T02:01:55;2.10;99.90
56044;DHT22;41912;51.022;3.664;2024-01-16T02:04:22;2.10;99.90
56044;DHT22;41912;51.022;3.664;2024-01-16T02:06:48;2.10;99.90
56044;DHT22;41912;51.022;3.664;2024-01-16T02:09:14;2.10;99.90
56044;DHT22;41912;51.022;3.664;2024-01-16T02:11:43;2.00;99.90
56044;DHT22;41912;51.022;3.664;2024-01-16T02:14:09;2.00;99.90
56044;DHT22;41912;51.022;3.664;2024-01-16T02:16:37;2.10;99.90
56044;DHT22;41912;51.022;3.664;2024-01-16T02:19:04;2.10;99.90
56044;DHT22;41912;51.022;3.664;2024-01-16T02:21:39;2.10;99.90
56044;DHT22;41912;51.022;3.664;2024-01-16T02:24:08;2.10;99.90
56044;DHT22;41912;51.022;3.664;2024-01-16T02:26:35;2.10;99.90
56044;DHT22;41912;51.022;3.664;2024-01-16T02:29:01;2.00;99.90
56044;DHT22;41912;51.022;3.664;2024-01-16T02:31:29;2.00;99.90
56044;DHT22;41912;51.022;3.664;2024-01-16T02:33:54;2.00;99.90
56044;DHT22;41912;51.022;3.664;2024-01-16T02:36:23;2.00;99.90
56044;DHT22;41912;51.022;3.664;2024-01-16T02:38:48;2.00;99.90
56044;DHT22;41912;51.022;3.664;2024-01-16T02:41:15;2.00;99.90
56044;DHT22;41912;51.022;3.664;2024-01-16T02:43:41;2.00;99.90
56044;DHT22;41912;51.022;3.664;2024-01-16T02:46:07;2.00;99.90
56044;DHT22;41912;51.022;3.664;2024-01-16T02:48:34;2.00;99.90
56044;DHT22;41912;51.022;3.664;2024-01-16T02:51:00;2.00;99.90
56044;DHT22;41912;51.022;3.664;2024-01-16T02:53:25;2.00;99.90
56044;DHT22;41912;51.022;3.664;2024-01-16T02:55:52;1.90;99.90
56044;DHT22;41912;51.022;3.664;2024-01-16T02:58:18;1.90;99.90
56044;DHT22;41912;51.022;3.664;2024-01-16T03:00:44;1.80;99.90
56044;DHT22;41912;51.022;3.664;2024-01-16T03:03:10;1.80;99.90
56044;DHT22;41912;51.022;3.664;2024-01-16T03:05:36;1.80;99.90
56044;DHT22;41912;51.022;3.664;2024-01-16T03:08:02;1.80;99.90
56044;DHT22;41912;51.022;3.664;2024-01-16T03:10:27;1.70;99.90
56044;DHT22;41912;51.022;3.664;2024-01-16T03:12:53;1.70;99.90
56044;DHT22;41912;51.022;3.664;2024-01-16T03:15:18;1.80;99.90
56044;DHT22;41912;51.022;3.664;2024-01-16T03:17:44;1.80;99.90
56044;DHT22;41912;51.022;3.664;2024-01-16T03:20:10;1.70;99.90
56044;DHT22;41912;51.022;3.664;2024-01-16T03:22:37;1.70;99.90
56044;DHT22;41912;51.022;3.664;2024-01-16T03:25:02;1.70;99.90
56044;DHT22;41912;51.022;3.664;2024-01-16T03:27:28;1.70;99.90
56044;DHT22;41912;51.022;3.664;2024-01-16T03:29:53;1.70;99.90
56044;DHT22;41912;51.022;3.664;2024-01-16T03:32:19;1.70;99.90
56044;DHT22;41912;51.022;3.664;2024-01-16T03:34:45;1.70;99.90
56044;DHT22;41912;51.022;3.664;2024-01-16T03:37:11;1.70;99.90
56044;DHT22;41912;51.022;3.664;2024-01-16T03:39:36;1.60;99.90
56044;DHT22;41912;51.022;3.664;2024-01-16T03:42:02;1.50;99.90
56044;DHT22;41912;51.022;3.664;2024-01-16T03:44:27;1.50;99.90
56044;DHT22;41912;51.022;3.664;2024-01-16T03:46:53;1.50;99.90
56044;DHT22;41912;51.022;3.664;2024-01-16T03:49:19;1.50;99.90
56044;DHT22;41912;51.022;3.664;2024-01-16T03:51:44;1.40;99.90
56044;DHT22;41912;51.022;3.664;2024-01-16T03:54:12;1.50;99.90
56044;DHT22;41912;51.022;3.664;2024-01-16T03:56:39;1.40;99.90
56044;DHT22;41912;51.022;3.664;2024-01-16T03:59:05;1.30;99.90
56044;DHT22;41912;51.022;3.664;2024-01-16T04:01:31;1.30;99.90
56044;DHT22;41912;51.022;3.664;2024-01-16T04:03:57;1.30;99.90
56044;DHT22;41912;51.022;3.664;2024-01-16T04:06:23;1.40;99.90
56044;DHT22;41912;51.022;3.664;2024-01-16T04:08:48;1.40;99.90
56044;DHT22;41912;51.022;3.664;2024-01-16T04:11:15;1.30;99.90
56044;DHT22;41912;51.022;3.664;2024-01-16T04:13:40;1.40;99.90
56044;DHT22;41912;51.022;3.664;2024-01-16T04:16:06;1.40;99.90
56044;DHT22;41912;51.022;3.664;2024-01-16T04:18:40;1.50;99.90
56044;DHT22;41912;51.022;3.664;2024-01-16T04:21:06;1.40;99.90
56044;DHT22;41912;51.022;3.664;2024-01-16T04:23:32;1.30;99.90
56044;DHT22;41912;51.022;3.664;2024-01-16T04:25:58;1.40;99.90
56044;DHT22;41912;51.022;3.664;2024-01-16T04:28:24;1.40;99.90
56044;DHT22;41912;51.022;3.664;2024-01-16T04:30:50;1.40;99.90
56044;DHT22;41912;51.022;3.664;2024-01-16T04:33:16;1.40;99.90
56044;DHT22;41912;51.022;3.664;2024-01-16T04:35:41;1.40;99.90
56044;DHT22;41912;51.022;3.664;2024-01-16T04:38:07;1.30;99.90
56044;DHT22;41912;51.022;3.664;2024-01-16T04:40:33;1.30;99.90
56044;DHT22;41912;51.022;3.664;2024-01-16T04:42:59;1.30;99.90
56044;DHT22;41912;51.022;3.664;2024-01-16T04:45:25;1.30;99.90
56044;DHT22;41912;51.022;3.664;2024-01-16T04:47:50;1.30;99.90
56044;DHT22;41912;51.022;3.664;2024-01-16T04:50:16;1.40;99.90
56044;DHT22;41912;51.022;3.664;2024-01-16T04:52:42;1.40;99.90
56044;DHT22;41912;51.022;3.664;2024-01-16T04:55:08;1.50;99.90
56044;DHT22;41912;51.022;3.664;2024-01-16T04:57:34;1.50;99.90
56044;DHT22;41912;51.022;3.664;2024-01-16T05:00:00;1.40;99.90
56044;DHT22;41912;51.022;3.664;2024-01-16T05:02:25;1.40;99.90
56044;DHT22;41912;51.022;3.664;2024-01-16T05:04:51;1.40;99.90
56044;DHT22;41912;51.022;3.664;2024-01-16T05:07:20;1.40;99.90
56044;DHT22;41912;51.022;3.664;2024-01-16T05:09:48;1.40;99.90
56044;DHT22;41912;51.022;3.664;2024-01-16T05:12:14;1.40;99.90
56044;DHT22;41912;51.022;3.664;2024-01-16T05:14:40;1.40;99.90
56044;DHT22;41912;51.022;3.664;2024-01-16T05:17:06;1.40;99.90
56044;DHT22;41912;51.022;3.664;2024-01-16T05:19:31;1.30;99.90
56044;DHT22;41912;51.022;3.664;2024-01-16T05:21:57;1.30;99.90
56044;DHT22;41912;51.022;3.664;2024-01-16T05:24:23;1.30;99.90
56044;DHT22;41912;51.022;3.664;2024-01-16T05:26:48;1.30;99.90
56044;DHT22;41912;51.022;3.664;2024-01-16T05:29:14;1.30;99.90
56044;DHT22;41912;51.022;3.664;2024-01-16T05:31:41;1.20;99.90
56044;DHT22;41912;51.022;3.664;2024-01-16T05:34:07;1.30;99.90
56044;DHT22;41912;51.022;3.664;2024-01-16T05:36:33;1.20;99.90
56044;DHT22;41912;51.022;3.664;2024-01-16T05:38:59;1.20;99.90
56044;DHT22;41912;51.022;3.664;2024-01-16T05:41:24;1.20;99.90
56044;DHT22;41912;51.022;3.664;2024-01-16T05:43:50;1.10;99.90
56044;DHT22;41912;51.022;3.664;2024-01-16T05:46:15;1.10;99.90
56044;DHT22;41912;51.022;3.664;2024-01-16T05:48:41;1.10;99.90
56044;DHT22;41912;51.022;3.664;2024-01-16T05:51:06;1.10;99.90
56044;DHT22;41912;51.022;3.664;2024-01-16T05:53:32;1.00;99.90
56044;DHT22;41912;51.022;3.664;2024-01-16T05:55:58;0.80;99.90
56044;DHT22;41912;51.022;3.664;2024-01-16T05:58:23;1.10;99.90
56044;DHT22;41912;51.022;3.664;2024-01-16T06:00:49;1.00;99.90
56044;DHT22;41912;51.022;3.664;2024-01-16T06:03:14;1.10;99.90
56044;DHT22;41912;51.022;3.664;2024-01-16T06:05:40;1.00;99.90
56044;DHT22;41912;51.022;3.664;2024-01-16T06:08:06;1.00;99.90
56044;DHT22;41912;51.022;3.664;2024-01-16T06:10:31;1.00;99.90
56044;DHT22;41912;51.022;3.664;2024-01-16T06:12:57;1.00;99.90
56044;DHT22;41912;51.022;3.664;2024-01-16T06:15:23;1.00;99.90
56044;DHT22;41912;51.022;3.664;2024-01-16T06:17:49;1.00;99.90
56044;DHT22;41912;51.022;3.664;2024-01-16T06:20:14;1.00;99.90
56044;DHT22;41912;51.022;3.664;2024-01-16T06:22:40;1.00;99.90
56044;DHT22;41912;51.022;3.664;2024-01-16T06:25:06;1.00;99.90
56044;DHT22;41912;51.022;3.664;2024-01-16T06:27:32;1.00;99.90
56044;DHT22;41912;51.022;3.664;2024-01-16T06:29:58;1.00;99.90
56044;DHT22;41912;51.022;3.664;2024-01-16T06:32:23;1.00;99.90
56044;DHT22;41912;51.022;3.664;2024-01-16T06:34:49;1.00;99.90
56044;DHT22;41912;51.022;3.664;2024-01-16T06:37:15;1.00;99.90
56044;DHT22;41912;51.022;3.664;2024-01-16T06:39:40;1.10;99.90
56044;DHT22;41912;51.022;3.664;2024-01-16T06:42:06;1.10;99.90
56044;DHT22;41912;51.022;3.664;2024-01-16T06:44:32;1.10;99.90
56044;DHT22;41912;51.022;3.664;2024-01-16T06:46:57;1.10;99.90
56044;DHT22;41912;51.022;3.664;2024-01-16T06:49:23;1.10;99.90
56044;DHT22;41912;51.022;3.664;2024-01-16T06:51:48;1.10;99.90
56044;DHT22;41912;51.022;3.664;2024-01-16T06:54:14;1.10;99.90
56044;DHT22;41912;51.022;3.664;2024-01-16T06:56:40;1.10;99.90
56044;DHT22;41912;51.022;3.664;2024-01-16T06:59:06;1.10;99.90
56044;DHT22;41912;51.022;3.664;2024-01-16T07:01:31;1.10;99.90
56044;DHT22;41912;51.022;3.664;2024-01-16T07:03:57;1.10;99.90
56044;DHT22;41912;51.022;3.664;2024-01-16T07:06:23;1.10;99.90
56044;DHT22;41912;51.022;3.664;2024-01-16T07:08:48;1.10;99.90
56044;DHT22;41912;51.022;3.664;2024-01-16T07:11:14;1.20;99.90
56044;DHT22;41912;51.022;3.664;2024-01-16T07:13:40;1.20;99.90
56044;DHT22;41912;51.022;3.664;2024-01-16T07:16:10;1.20;99.90
56044;DHT22;41912;51.022;3.664;2024-01-16T07:18:39;1.20;99.90
56044;DHT22;41912;51.022;3.664;2024-01-16T07:21:16;1.20;99.90
56044;DHT22;41912;51.022;3.664;2024-01-16T07:23:42;1.20;99.90
56044;DHT22;41912;51.022;3.664;2024-01-16T07:26:07;1.20;99.90
56044;DHT22;41912;51.022;3.664;2024-01-16T07:28:33;1.20;99.90
56044;DHT22;41912;51.022;3.664;2024-01-16T07:30:58;1.10;99.90
56044;DHT22;41912;51.022;3.664;2024-01-16T07:33:24;1.10;99.90
56044;DHT22;41912;51.022;3.664;2024-01-16T07:35:50;1.10;99.90
56044;DHT22;41912;51.022;3.664;2024-01-16T07:38:15;1.20;99.90
56044;DHT22;41912;51.022;3.664;2024-01-16T07:40:41;1.20;99.90
56044;DHT22;41912;51.022;3.664;2024-01-16T07:43:06;1.20;99.90
56044;DHT22;41912;51.022;3.664;2024-01-16T07:45:32;1.20;99.90
56044;DHT22;41912;51.022;3.664;2024-01-16T07:47:58;1.20;99.90
56044;DHT22;41912;51.022;3.664;2024-01-16T07:50:23;1.20;99.90
56044;DHT22;41912;51.022;3.664;2024-01-16T07:52:49;1.20;99.90
56044;DHT22;41912;51.022;3.664;2024-01-16T07:55:15;1.20;99.90
56044;DHT22;41912;51.022;3.664;2024-01-16T07:57:40;1.20;99.90
56044;DHT22;41912;51.022;3.664;2024-01-16T08:00:06;1.10;99.90
56044;DHT22;41912;51.022;3.664;2024-01-16T08:02:37;1.10;99.90
56044;DHT22;41912;51.022;3.664;2024-01-16T08:05:03;1.10;99.90
56044;DHT22;41912;51.022;3.664;2024-01-16T08:07:29;1.10;99.90
56044;DHT22;41912;51.022;3.664;2024-01-16T08:09:54;1.10;99.90
56044;DHT22;41912;51.022;3.664;2024-01-16T08:12:20;1.10;99.90
56044;DHT22;41912;51.022;3.664;2024-01-16T08:14:46;1.10;99.90
56044;DHT22;41912;51.022;3.664;2024-01-16T08:17:11;1.20;99.90
56044;DHT22;41912;51.022;3.664;2024-01-16T08:19:37;1.20;99.90
56044;DHT22;41912;51.022;3.664;2024-01-16T08:22:02;1.10;99.90
56044;DHT22;41912;51.022;3.664;2024-01-16T08:24:28;1.20;99.90
56044;DHT22;41912;51.022;3.664;2024-01-16T08:26:54;1.20;99.90
56044;DHT22;41912;51.022;3.664;2024-01-16T08:29:22;1.20;99.90
56044;DHT22;41912;51.022;3.664;2024-01-16T08:31:48;1.20;99.90
56044;DHT22;41912;51.022;3.664;2024-01-16T08:34:13;1.20;99.90
56044;DHT22;41912;51.022;3.664;2024-01-16T08:39:05;1.20;99.90
56044;DHT22;41912;51.022;3.664;2024-01-16T08:41:31;1.20;99.90
56044;DHT22;41912;51.022;3.664;2024-01-16T08:43:56;1.20;99.90
56044;DHT22;41912;51.022;3.664;2024-01-16T08:48:47;1.20;99.90
56044;DHT22;41912;51.022;3.664;2024-01-16T08:51:13;1.20;99.90
56044;DHT22;41912;51.022;3.664;2024-01-16T08:53:39;1.20;99.90
56044;DHT22;41912;51.022;3.664;2024-01-16T08:56:05;1.20;99.90
56044;DHT22;41912;51.022;3.664;2024-01-16T08:58:34;1.30;99.90
56044;DHT22;41912;51.022;3.664;2024-01-16T09:01:04;1.30;99.90
56044;DHT22;41912;51.022;3.664;2024-01-16T09:03:34;1.30;99.90
56044;DHT22;41912;51.022;3.664;2024-01-16T09:06:00;1.40;99.90
56044;DHT22;41912;51.022;3.664;2024-01-16T09:08:26;1.40;99.90
56044;DHT22;41912;51.022;3.664;2024-01-16T09:11:04;1.40;99.90
56044;DHT22;41912;51.022;3.664;2024-01-16T09:13:29;1.50;99.90
56044;DHT22;41912;51.022;3.664;2024-01-16T09:15:55;1.40;99.90
56044;DHT22;41912;51.022;3.664;2024-01-16T09:18:21;1.40;99.90
56044;DHT22;41912;51.022;3.664;2024-01-16T09:20:46;1.40;99.90
56044;DHT22;41912;51.022;3.664;2024-01-16T09:23:12;1.40;99.90
56044;DHT22;41912;51.022;3.664;2024-01-16T09:25:38;1.30;99.90
56044;DHT22;41912;51.022;3.664;2024-01-16T09:28:04;1.50;99.90
56044;DHT22;41912;51.022;3.664;2024-01-16T09:30:29;1.40;99.90
56044;DHT22;41912;51.022;3.664;2024-01-16T09:32:55;1.40;99.90
56044;DHT22;41912;51.022;3.664;2024-01-16T09:35:20;1.40;99.90
56044;DHT22;41912;51.022;3.664;2024-01-16T09:37:47;1.50;99.90
56044;DHT22;41912;51.022;3.664;2024-01-16T09:40:13;1.50;99.90
56044;DHT22;41912;51.022;3.664;2024-01-16T09:42:39;1.40;99.90
56044;DHT22;41912;51.022;3.664;2024-01-16T09:45:07;1.60;99.90
56044;DHT22;41912;51.022;3.664;2024-01-16T09:47:34;1.70;99.90
56044;DHT22;41912;51.022;3.664;2024-01-16T09:50:00;1.70;99.90
56044;DHT22;41912;51.022;3.664;2024-01-16T09:52:28;1.80;99.90
56044;DHT22;41912;51.022;3.664;2024-01-16T09:54:54;1.80;99.90
56044;DHT22;41912;51.022;3.664;2024-01-16T09:57:19;1.80;99.90
56044;DHT22;41912;51.022;3.664;2024-01-16T09:59:48;1.80;99.90
56044;DHT22;41912;51.022;3.664;2024-01-16T10:02:14;1.80;99.90
56044;DHT22;41912;51.022;3.664;2024-01-16T10:04:41;1.90;99.90
56044;DHT22;41912;51.022;3.664;2024-01-16T10:07:08;1.90;99.90
56044;DHT22;41912;51.022;3.664;2024-01-16T10:09:35;2.00;99.90
56044;DHT22;41912;51.022;3.664;2024-01-16T10:12:01;2.10;99.90
56044;DHT22;41912;51.022;3.664;2024-01-16T10:14:28;2.10;99.90
56044;DHT22;41912;51.022;3.664;2024-01-16T10:19:21;2.20;99.90
56044;DHT22;41912;51.022;3.664;2024-01-16T10:21:47;2.20;99.90
56044;DHT22;41912;51.022;3.664;2024-01-16T10:24:12;2.20;99.90
56044;DHT22;41912;51.022;3.664;2024-01-16T10:26:38;2.30;99.90
56044;DHT22;41912;51.022;3.664;2024-01-16T10:29:04;2.40;99.90
56044;DHT22;41912;51.022;3.664;2024-01-16T10:31:34;2.50;99.90
56044;DHT22;41912;51.022;3.664;2024-01-16T10:34:00;2.50;99.90
56044;DHT22;41912;51.022;3.664;2024-01-16T10:36:26;2.50;99.90
56044;DHT22;41912;51.022;3.664;2024-01-16T10:38:52;2.60;99.90
56044;DHT22;41912;51.022;3.664;2024-01-16T10:41:23;2.60;99.90
56044;DHT22;41912;51.022;3.664;2024-01-16T10:44:07;2.60;99.90
56044;DHT22;41912;51.022;3.664;2024-01-16T10:46:33;2.70;99.90
56044;DHT22;41912;51.022;3.664;2024-01-16T10:49:05;2.70;99.90
56044;DHT22;41912;51.022;3.664;2024-01-16T10:51:32;2.70;99.90
56044;DHT22;41912;51.022;3.664;2024-01-16T10:54:07;2.80;99.90
56044;DHT22;41912;51.022;3.664;2024-01-16T10:56:36;2.90;99.90
56044;DHT22;41912;51.022;3.664;2024-01-16T11:01:34;2.90;99.90
56044;DHT22;41912;51.022;3.664;2024-01-16T11:04:01;3.00;99.90
56044;DHT22;41912;51.022;3.664;2024-01-16T11:06:27;3.10;99.90
56044;DHT22;41912;51.022;3.664;2024-01-16T11:08:54;3.10;99.90
56044;DHT22;41912;51.022;3.664;2024-01-16T11:11:20;3.10;99.90
56044;DHT22;41912;51.022;3.664;2024-01-16T11:13:47;3.20;99.90
56044;DHT22;41912;51.022;3.664;2024-01-16T11:16:14;3.30;99.90
56044;DHT22;41912;51.022;3.664;2024-01-16T11:18:40;3.30;99.90
56044;DHT22;41912;51.022;3.664;2024-01-16T11:21:15;3.20;99.90
56044;DHT22;41912;51.022;3.664;2024-01-16T11:23:41;3.30;99.90
56044;DHT22;41912;51.022;3.664;2024-01-16T11:26:32;3.30;99.90
56044;DHT22;41912;51.022;3.664;2024-01-16T11:28:59;3.40;99.90
56044;DHT22;41912;51.022;3.664;2024-01-16T11:31:30;3.30;99.90
56044;DHT22;41912;51.022;3.664;2024-01-16T11:33:59;3.30;99.90
56044;DHT22;41912;51.022;3.664;2024-01-16T11:36:52;3.30;99.90
56044;DHT22;41912;51.022;3.664;2024-01-16T11:39:23;3.40;99.90
56044;DHT22;41912;51.022;3.664;2024-01-16T11:41:54;3.40;99.90
56044;DHT22;41912;51.022;3.664;2024-01-16T11:44:48;3.40;99.90
56044;DHT22;41912;51.022;3.664;2024-01-16T11:47:18;3.40;99.90
56044;DHT22;41912;51.022;3.664;2024-01-16T11:49:45;3.50;99.90
56044;DHT22;41912;51.022;3.664;2024-01-16T11:52:11;3.40;99.90
56044;DHT22;41912;51.022;3.664;2024-01-16T11:54:41;3.50;99.90
56044;DHT22;41912;51.022;3.664;2024-01-16T12:02:02;3.70;99.90
56044;DHT22;41912;51.022;3.664;2024-01-16T12:04:29;3.70;99.90
56044;DHT22;41912;51.022;3.664;2024-01-16T12:06:58;3.70;99.90
56044;DHT22;41912;51.022;3.664;2024-01-16T12:09:26;3.70;99.90
56044;DHT22;41912;51.022;3.664;2024-01-16T12:11:56;3.80;99.90
56044;DHT22;41912;51.022;3.664;2024-01-16T12:14:23;3.80;99.90
56044;DHT22;41912;51.022;3.664;2024-01-16T12:16:49;3.90;99.90
56044;DHT22;41912;51.022;3.664;2024-01-16T12:19:15;3.90;99.90
56044;DHT22;41912;51.022;3.664;2024-01-16T12:21:43;4.00;99.90
56044;DHT22;41912;51.022;3.664;2024-01-16T12:24:10;4.00;99.90
56044;DHT22;41912;51.022;3.664;2024-01-16T12:26:36;4.10;99.90
56044;DHT22;41912;51.022;3.664;2024-01-16T12:29:02;4.10;99.90
56044;DHT22;41912;51.022;3.664;2024-01-16T12:31:29;4.00;99.90
56044;DHT22;41912;51.022;3.664;2024-01-16T12:34:07;3.80;99.90
56044;DHT22;41912;51.022;3.664;2024-01-16T12:36:34;4.00;99.90
56044;DHT22;41912;51.022;3.664;2024-01-16T12:39:00;4.10;99.90
56044;DHT22;41912;51.022;3.664;2024-01-16T12:41:32;4.10;99.90
56044;DHT22;41912;51.022;3.664;2024-01-16T12:44:00;4.10;99.90
56044;DHT22;41912;51.022;3.664;2024-01-16T12:46:25;4.00;99.90
56044;DHT22;41912;51.022;3.664;2024-01-16T12:48:51;4.10;99.90
56044;DHT22;41912;51.022;3.664;2024-01-16T12:51:21;4.20;99.90
56044;DHT22;41912;51.022;3.664;2024-01-16T12:53:49;4.30;99.90
56044;DHT22;41912;51.022;3.664;2024-01-16T12:56:18;4.20;99.90
56044;DHT22;41912;51.022;3.664;2024-01-16T12:58:44;4.30;99.90
56044;DHT22;41912;51.022;3.664;2024-01-16T13:03:49;4.50;99.90
56044;DHT22;41912;51.022;3.664;2024-01-16T13:06:22;4.50;99.90
56044;DHT22;41912;51.022;3.664;2024-01-16T13:08:51;4.60;99.90
56044;DHT22;41912;51.022;3.664;2024-01-16T13:11:29;4.50;99.80
56044;DHT22;41912;51.022;3.664;2024-01-16T13:14:01;4.60;99.80
56044;DHT22;41912;51.022;3.664;2024-01-16T13:16:28;4.70;99.90
56044;DHT22;41912;51.022;3.664;2024-01-16T13:19:01;4.70;99.90
56044;DHT22;41912;51.022;3.664;2024-01-16T13:21:27;4.80;99.60
56044;DHT22;41912;51.022;3.664;2024-01-16T13:23:53;4.80;99.60
56044;DHT22;41912;51.022;3.664;2024-01-16T13:26:18;4.90;99.40
56044;DHT22;41912;51.022;3.664;2024-01-16T13:28:44;4.90;99.20
56044;DHT22;41912;51.022;3.664;2024-01-16T13:31:12;4.70;99.30
56044;DHT22;41912;51.022;3.664;2024-01-16T13:33:38;4.70;99.40
56044;DHT22;41912;51.022;3.664;2024-01-16T13:36:04;4.80;99.40
56044;DHT22;41912;51.022;3.664;2024-01-16T13:38:30;4.80;99.40
56044;DHT22;41912;51.022;3.664;2024-01-16T13:40:55;4.90;99.10
56044;DHT22;41912;51.022;3.664;2024-01-16T13:43:21;5.00;98.70
56044;DHT22;41912;51.022;3.664;2024-01-16T13:45:47;5.00;98.50
56044;DHT22;41912;51.022;3.664;2024-01-16T13:48:17;5.00;98.50
56044;DHT22;41912;51.022;3.664;2024-01-16T13:50:43;5.10;98.80
56044;DHT22;41912;51.022;3.664;2024-01-16T13:53:10;5.10;98.60
56044;DHT22;41912;51.022;3.664;2024-01-16T13:55:38;5.10;98.00
56044;DHT22;41912;51.022;3.664;2024-01-16T13:58:04;5.10;97.80
56044;DHT22;41912;51.022;3.664;2024-01-16T14:00:30;5.10;97.90
56044;DHT22;41912;51.022;3.664;2024-01-16T14:02:56;5.10;98.10
56044;DHT22;41912;51.022;3.664;2024-01-16T14:05:21;5.10;98.20
56044;DHT22;41912;51.022;3.664;2024-01-16T14:07:49;5.10;98.20
56044;DHT22;41912;51.022;3.664;2024-01-16T14:10:19;5.20;98.00
56044;DHT22;41912;51.022;3.664;2024-01-16T14:12:46;5.30;98.00
56044;DHT22;41912;51.022;3.664;2024-01-16T14:15:13;5.20;97.90
56044;DHT22;41912;51.022;3.664;2024-01-16T14:17:45;5.10;97.60
56044;DHT22;41912;51.022;3.664;2024-01-16T14:20:12;5.10;97.90
56044;DHT22;41912;51.022;3.664;2024-01-16T14:22:38;5.10;97.80
56044;DHT22;41912;51.022;3.664;2024-01-16T14:25:08;5.10;97.70
56044;DHT22;41912;51.022;3.664;2024-01-16T14:30:05;5.00;97.60
56044;DHT22;41912;51.022;3.664;2024-01-16T14:32:32;5.10;98.00
56044;DHT22;41912;51.022;3.664;2024-01-16T14:34:58;5.20;98.00
56044;DHT22;41912;51.022;3.664;2024-01-16T14:37:24;5.20;98.00
56044;DHT22;41912;51.022;3.664;2024-01-16T14:39:49;5.30;98.30
56044;DHT22;41912;51.022;3.664;2024-01-16T14:42:15;5.40;98.40
56044;DHT22;41912;51.022;3.664;2024-01-16T14:44:40;5.30;97.20
56044;DHT22;41912;51.022;3.664;2024-01-16T14:47:06;5.40;97.00
56044;DHT22;41912;51.022;3.664;2024-01-16T14:49:34;5.60;97.10
56044;DHT22;41912;51.022;3.664;2024-01-16T14:52:00;6.00;95.90
56044;DHT22;41912;51.022;3.664;2024-01-16T14:54:26;6.50;95.70
56044;DHT22;41912;51.022;3.664;2024-01-16T14:56:52;6.80;94.80
56044;DHT22;41912;51.022;3.664;2024-01-16T14:59:18;6.90;94.20
56044;DHT22;41912;51.022;3.664;2024-01-16T15:01:44;6.80;93.80
56044;DHT22;41912;51.022;3.664;2024-01-16T15:04:10;6.80;93.60
56044;DHT22;41912;51.022;3.664;2024-01-16T15:06:36;6.70;93.70
56044;DHT22;41912;51.022;3.664;2024-01-16T15:09:02;6.60;94.00
56044;DHT22;41912;51.022;3.664;2024-01-16T15:11:27;6.60;94.70
56044;DHT22;41912;51.022;3.664;2024-01-16T15:13:53;7.00;94.40
56044;DHT22;41912;51.022;3.664;2024-01-16T15:16:22;6.80;93.10
56044;DHT22;41912;51.022;3.664;2024-01-16T15:18:49;6.70;93.70
56044;DHT22;41912;51.022;3.664;2024-01-16T15:21:15;6.80;93.70
56044;DHT22;41912;51.022;3.664;2024-01-16T15:23:40;6.80;93.10
56044;DHT22;41912;51.022;3.664;2024-01-16T15:26:06;6.80;93.10
56044;DHT22;41912;51.022;3.664;2024-01-16T15:28:32;6.70;93.40
56044;DHT22;41912;51.022;3.664;2024-01-16T15:30:58;6.70;93.60
56044;DHT22;41912;51.022;3.664;2024-01-16T15:33:31;6.70;93.40
56044;DHT22;41912;51.022;3.664;2024-01-16T15:35:59;6.90;92.90
56044;DHT22;41912;51.022;3.664;2024-01-16T15:38:26;6.90;92.40
56044;DHT22;41912;51.022;3.664;2024-01-16T15:40:51;6.80;92.80
56044;DHT22;41912;51.022;3.664;2024-01-16T15:43:18;6.60;93.20
56044;DHT22;41912;51.022;3.664;2024-01-16T15:45:44;6.40;92.90
56044;DHT22;41912;51.022;3.664;2024-01-16T15:48:09;6.20;93.10
56044;DHT22;41912;51.022;3.664;2024-01-16T15:50:35;6.00;93.50
56044;DHT22;41912;51.022;3.664;2024-01-16T15:53:01;5.90;93.80
56044;DHT22;41912;51.022;3.664;2024-01-16T15:55:27;5.70;94.10
56044;DHT22;41912;51.022;3.664;2024-01-16T15:57:53;5.60;94.30
56044;DHT22;41912;51.022;3.664;2024-01-16T16:00:20;5.50;94.90
56044;DHT22;41912;51.022;3.664;2024-01-16T16:02:48;5.30;95.50